createdAt,value
2018-09-23T00:00:19.123Z,98321.34
2018-09-23T00:02:47.307Z,98320.15
2018-09-23T00:05:15.605Z,98316.42
2018-09-23T00:07:43.918Z,98324.30
2018-09-23T00:10:12.077Z,98325.31
2018-09-23T00:12:40.549Z,98335.97
2018-09-23T00:15:09.081Z,98341.77
2018-09-23T00:17:37.292Z,98342.66
2018-09-23T00:20:05.784Z,98327.35
2018-09-23T00:22:34.059Z,98330.09
2018-09-23T00:25:02.504Z,98318.80
2018-09-23T00:27:32.606Z,98318.45
2018-09-23T00:30:01.058Z,98311.66
2018-09-23T00:32:29.344Z,98317.34
2018-09-23T00:34:57.503Z,98315.63
2018-09-23T00:37:25.679Z,98312.87
2018-09-23T00:39:53.962Z,98322.09
2018-09-23T00:42:22.142Z,98329.04
2018-09-23T00:44:50.693Z,98318.70
2018-09-23T00:47:18.866Z,98312.22
2018-09-23T00:49:47.136Z,98316.03
2018-09-23T00:52:15.409Z,98310.56
2018-09-23T00:54:43.593Z,98317.19
2018-09-23T00:57:11.761Z,98311.59
2018-09-23T00:59:39.947Z,98304.64
2018-09-23T01:02:08.196Z,98314.08
2018-09-23T01:04:36.365Z,98316.94
2018-09-23T01:07:04.657Z,98323.53
2018-09-23T01:09:32.831Z,98325.03
2018-09-23T01:12:01.062Z,98329.70
2018-09-23T01:14:29.278Z,98325.48
2018-09-23T01:16:57.490Z,98311.81
2018-09-23T01:19:25.772Z,98307.63
2018-09-23T01:21:53.946Z,98307.27
2018-09-23T01:24:22.322Z,98308.74
2018-09-23T01:26:50.540Z,98299.17
2018-09-23T01:29:18.732Z,98302.83
2018-09-23T01:31:46.998Z,98299.74
2018-09-23T01:34:15.168Z,98302.03
2018-09-23T01:36:43.697Z,98302.15
2018-09-23T01:39:11.873Z,98300.22
2018-09-23T01:41:40.102Z,98304.08
2018-09-23T01:44:08.715Z,98298.16
2018-09-23T01:46:36.965Z,98284.05
2018-09-23T01:49:05.239Z,98281.41
2018-09-23T01:51:33.421Z,98287.80
2018-09-23T01:54:01.693Z,98286.64
2018-09-23T01:56:29.865Z,98286.06
2018-09-23T01:58:58.053Z,98294.36
2018-09-23T02:01:26.322Z,98290.30
2018-09-23T02:03:54.594Z,98286.78
2018-09-23T02:06:22.961Z,98280.39
2018-09-23T02:08:51.133Z,98279.61
2018-09-23T02:11:19.520Z,98289.74
2018-09-23T02:13:48.100Z,98287.01
2018-09-23T02:16:16.276Z,98284.53
2018-09-23T02:18:44.565Z,98281.64
2018-09-23T02:21:12.917Z,98279.13
2018-09-23T02:23:41.037Z,98282.09
2018-09-23T02:26:09.310Z,98278.47
2018-09-23T02:28:37.574Z,98283.61
2018-09-23T02:31:05.913Z,98272.30
2018-09-23T02:33:34.078Z,98274.59
2018-09-23T02:36:02.304Z,98268.11
2018-09-23T02:38:30.479Z,98264.36
2018-09-23T02:40:58.681Z,98264.35
2018-09-23T02:43:28.157Z,98259.34
2018-09-23T02:45:56.417Z,98241.36
2018-09-23T02:48:24.698Z,98252.98
2018-09-23T02:50:52.889Z,98245.36
2018-09-23T02:53:21.289Z,98236.91
2018-09-23T02:55:49.457Z,98235.20
2018-09-23T02:58:17.713Z,98220.05
2018-09-23T03:00:45.974Z,98212.77
2018-09-23T03:03:14.141Z,98211.05
2018-09-23T03:05:42.376Z,98212.45
2018-09-23T03:08:10.590Z,98205.62
2018-09-23T03:10:38.759Z,98205.27
2018-09-23T03:13:07.190Z,98199.33
2018-09-23T03:15:35.424Z,98206.64
2018-09-23T03:18:04.004Z,98202.08
2018-09-23T03:20:32.194Z,98202.18
2018-09-23T03:23:00.458Z,98212.66
2018-09-23T03:25:28.620Z,98220.16
2018-09-23T03:27:56.814Z,98217.77
2018-09-23T03:30:25.009Z,98202.97
2018-09-23T03:32:53.482Z,98204.14
2018-09-23T03:35:21.676Z,98208.02
2018-09-23T03:37:49.848Z,98198.10
2018-09-23T03:40:18.662Z,98190.36
2018-09-23T03:42:47.365Z,98182.17
2018-09-23T03:45:15.556Z,98175.91
2018-09-23T03:47:43.726Z,98171.47
2018-09-23T03:50:12.053Z,98171.50
2018-09-23T03:52:40.282Z,98169.34
2018-09-23T03:55:08.452Z,98172.86
2018-09-23T03:57:36.641Z,98166.80
2018-09-23T04:00:05.097Z,98164.22
2018-09-23T04:02:33.590Z,98156.73
2018-09-23T04:05:01.774Z,98152.86
2018-09-23T04:07:30.056Z,98150.80
2018-09-23T04:09:58.247Z,98146.12
2018-09-23T04:12:26.460Z,98145.78
2018-09-23T04:14:54.630Z,98133.34
2018-09-23T04:17:22.815Z,98146.33
2018-09-23T04:19:51.016Z,98142.55
2018-09-23T04:22:19.194Z,98142.89
2018-09-23T04:24:47.365Z,98138.83
2018-09-23T04:27:16.555Z,98132.95
2018-09-23T04:29:44.765Z,98131.75
2018-09-23T04:32:13.017Z,98121.27
2018-09-23T04:34:41.196Z,98113.61
2018-09-23T04:37:09.367Z,98113.65
2018-09-23T04:39:37.527Z,98110.91
2018-09-23T04:42:05.840Z,98117.46
2018-09-23T04:44:34.038Z,98122.67
2018-09-23T04:47:02.202Z,98125.27
2018-09-23T04:49:30.390Z,98122.80
2018-09-23T04:51:58.606Z,98111.65
2018-09-23T04:54:26.839Z,98096.56
2018-09-23T04:56:55.010Z,98094.84
2018-09-23T04:59:23.246Z,98097.87
2018-09-23T05:01:51.430Z,98095.73
2018-09-23T05:04:19.678Z,98098.72
2018-09-23T05:06:47.853Z,98091.67
2018-09-23T05:09:16.032Z,98102.28
2018-09-23T05:11:44.329Z,98096.85
2018-09-23T05:14:12.485Z,98093.57
2018-09-23T05:16:40.659Z,98089.23
2018-09-23T05:19:08.837Z,98090.84
2018-09-23T05:21:37.017Z,98084.70
2018-09-23T05:24:05.183Z,98088.72
2018-09-23T05:26:33.750Z,98089.77
2018-09-23T05:29:01.973Z,98078.20
2018-09-23T05:31:30.159Z,98069.52
2018-09-23T05:33:58.348Z,98067.98
2018-09-23T05:36:26.565Z,98070.00
2018-09-23T05:38:54.829Z,98072.60
2018-09-23T05:41:23.013Z,98074.85
2018-09-23T05:43:51.307Z,98071.53
2018-09-23T05:46:19.766Z,98064.85
2018-09-23T05:48:47.929Z,98056.15
2018-09-23T05:51:16.421Z,98055.60
2018-09-23T05:53:44.755Z,98061.05
2018-09-23T05:56:13.124Z,98062.55
2018-09-23T05:58:41.829Z,98053.46
2018-09-23T06:01:10.048Z,98054.12
2018-09-23T06:03:38.328Z,98050.07
2018-09-23T06:06:06.606Z,98049.45
2018-09-23T06:08:34.909Z,98043.00
2018-09-23T06:11:03.233Z,98042.50
2018-09-23T06:13:31.358Z,98043.05
2018-09-23T06:15:59.617Z,98041.02
2018-09-23T06:18:27.863Z,98030.38
2018-09-23T06:20:55.996Z,98035.24
2018-09-23T06:23:24.469Z,98035.70
2018-09-23T06:25:52.657Z,98033.55
2018-09-23T06:28:21.129Z,98025.27
2018-09-23T06:30:49.299Z,98027.34
2018-09-23T06:33:17.537Z,98027.45
2018-09-23T06:35:45.807Z,98024.76
2018-09-23T06:38:13.978Z,98033.97
2018-09-23T06:40:42.161Z,98035.51
2018-09-23T06:43:10.449Z,98030.97
2018-09-23T06:45:38.757Z,98036.26
2018-09-23T06:48:07.096Z,98024.67
2018-09-23T06:50:35.275Z,98025.16
2018-09-23T06:53:03.805Z,98019.41
2018-09-23T06:55:31.991Z,98026.87
2018-09-23T06:58:00.187Z,98025.27
2018-09-23T07:00:28.428Z,98019.45
2018-09-23T07:02:56.601Z,98022.39
2018-09-23T07:05:24.769Z,98019.63
2018-09-23T07:07:53.313Z,98019.45
2018-09-23T07:10:21.668Z,98016.34
2018-09-23T07:12:50.180Z,98019.01
2018-09-23T07:15:18.351Z,98015.62
2018-09-23T07:17:46.626Z,98007.94
2018-09-23T07:20:14.805Z,98003.02
2018-09-23T07:22:43.110Z,98001.69
2018-09-23T07:25:11.405Z,97997.17
2018-09-23T07:27:39.923Z,98001.22
2018-09-23T07:30:08.165Z,97998.38
2018-09-23T07:32:36.401Z,97999.77
2018-09-23T07:35:04.585Z,97997.39
2018-09-23T07:37:32.817Z,97991.38
2018-09-23T07:40:01.321Z,97991.11
2018-09-23T07:42:29.417Z,97992.86
2018-09-23T07:44:57.875Z,97985.97
2018-09-23T07:47:26.141Z,97984.88
2018-09-23T07:49:54.368Z,97981.55
2018-09-23T07:52:22.647Z,97976.20
2018-09-23T07:54:50.841Z,97978.89
2018-09-23T07:57:19.038Z,97968.97
2018-09-23T07:59:47.220Z,97965.30
2018-09-23T08:02:15.908Z,97960.00
2018-09-23T08:04:44.088Z,97953.17
2018-09-23T08:07:12.348Z,97951.91
2018-09-23T08:09:40.566Z,97953.59
2018-09-23T08:12:08.738Z,97951.08
2018-09-23T08:14:37.297Z,97952.09
2018-09-23T08:17:05.307Z,97944.93
2018-09-23T08:19:33.611Z,97941.14
2018-09-23T08:22:01.801Z,97952.68
2018-09-23T08:24:29.990Z,97951.97
2018-09-23T08:26:58.238Z,97952.63
2018-09-23T08:29:26.410Z,97948.34
2018-09-23T08:31:54.601Z,97945.97
2018-09-23T08:34:23.078Z,97946.95
2018-09-23T08:36:51.250Z,97942.66
2018-09-23T08:39:19.467Z,97934.78
2018-09-23T08:41:47.637Z,97934.89
2018-09-23T08:44:15.809Z,97932.91
2018-09-23T08:46:44.085Z,97927.66
2018-09-23T08:49:12.325Z,97919.63
2018-09-23T08:51:40.642Z,97922.72
2018-09-23T08:54:08.797Z,97910.12
2018-09-23T08:56:36.995Z,97911.56
2018-09-23T08:59:05.176Z,97912.07
2018-09-23T09:01:33.357Z,97900.61
2018-09-23T09:04:01.536Z,97903.14
2018-09-23T09:06:29.734Z,97897.82
2018-09-23T09:08:58.041Z,97896.00
2018-09-23T09:11:26.250Z,97888.28
2018-09-23T09:13:54.432Z,97884.71
2018-09-23T09:16:22.663Z,97880.09
2018-09-23T09:18:50.914Z,97882.88
2018-09-23T09:21:19.092Z,97875.34
2018-09-23T09:23:47.391Z,97877.38
2018-09-23T09:26:15.581Z,97876.90
2018-09-23T09:28:43.786Z,97877.41
2018-09-23T09:31:11.972Z,97865.76
2018-09-23T09:33:40.328Z,97871.19
2018-09-23T09:36:08.522Z,97871.89
2018-09-23T09:38:36.891Z,97862.67
2018-09-23T09:41:05.190Z,97866.05
2018-09-23T09:43:33.497Z,97864.05
2018-09-23T09:46:01.766Z,97858.69
2018-09-23T09:48:29.943Z,97844.66
2018-09-23T09:50:58.249Z,97846.34
2018-09-23T09:53:26.518Z,97838.39
2018-09-23T09:55:54.692Z,97838.53
2018-09-23T09:58:22.873Z,97830.31
2018-09-23T10:00:51.125Z,97830.58
2018-09-23T10:03:19.323Z,97829.48
2018-09-23T10:05:47.564Z,97819.33
2018-09-23T10:08:15.853Z,97820.78
2018-09-23T10:10:44.118Z,97820.46
2018-09-23T10:13:12.389Z,97813.95
2018-09-23T10:15:40.797Z,97818.91
2018-09-23T10:18:08.981Z,97818.29
2018-09-23T10:20:37.368Z,97814.31
2018-09-23T10:23:05.575Z,97801.33
2018-09-23T10:25:33.873Z,97802.08
2018-09-23T10:28:02.099Z,97799.69
2018-09-23T10:30:30.299Z,97790.49
2018-09-23T10:32:58.500Z,97786.83
2018-09-23T10:35:26.703Z,97784.87
2018-09-23T10:37:54.961Z,97774.84
2018-09-23T10:40:23.218Z,97775.63
2018-09-23T10:42:51.512Z,97763.83
2018-09-23T10:45:19.790Z,97766.92
2018-09-23T10:47:48.050Z,97768.38
2018-09-23T10:50:16.276Z,97768.04
2018-09-23T10:52:44.490Z,97764.55
2018-09-23T10:55:12.680Z,97757.61
2018-09-23T10:57:40.884Z,97757.39
2018-09-23T11:00:09.249Z,97751.13
2018-09-23T11:02:37.444Z,97740.71
2018-09-23T11:05:05.689Z,97740.79
2018-09-23T11:07:34.140Z,97742.27
2018-09-23T11:10:02.289Z,97736.94
2018-09-23T11:12:30.470Z,97729.30
2018-09-23T11:14:58.693Z,97713.49
2018-09-23T11:17:26.958Z,97705.42
2018-09-23T11:19:55.238Z,97698.34
2018-09-23T11:22:23.525Z,97693.69
2018-09-23T11:24:51.731Z,97695.03
2018-09-23T11:27:20.392Z,97695.56
2018-09-23T11:29:48.598Z,97690.17
2018-09-23T11:32:16.800Z,97689.26
2018-09-23T11:34:45.005Z,97691.36
2018-09-23T11:37:13.282Z,97685.19
2018-09-23T11:39:41.466Z,97672.22
2018-09-23T11:42:09.666Z,97673.66
2018-09-23T11:44:37.878Z,97672.09
2018-09-23T11:47:06.430Z,97661.68
2018-09-23T11:49:34.642Z,97648.91
2018-09-23T11:52:02.843Z,97651.85
2018-09-23T11:54:31.112Z,97641.65
2018-09-23T11:56:59.376Z,97637.71
2018-09-23T11:59:27.590Z,97630.13
2018-09-23T12:01:57.813Z,97627.50
2018-09-23T12:04:26.070Z,97620.53
2018-09-23T12:06:54.181Z,97610.54
2018-09-23T12:09:22.357Z,97611.55
2018-09-23T12:11:50.529Z,97595.70
2018-09-23T12:14:18.749Z,97577.33
2018-09-23T12:16:46.917Z,97564.36
2018-09-23T12:19:15.191Z,97557.09
2018-09-23T12:21:43.411Z,97556.81
2018-09-23T12:24:11.665Z,97549.25
2018-09-23T12:26:39.861Z,97545.36
2018-09-23T12:29:08.084Z,97545.89
2018-09-23T12:31:36.447Z,97537.98
2018-09-23T12:34:04.641Z,97535.73
2018-09-23T12:36:32.937Z,97527.91
2018-09-23T12:39:01.189Z,97512.28
2018-09-23T12:41:29.382Z,97488.13
2018-09-23T12:43:57.584Z,97487.46
2018-09-23T12:46:25.771Z,97474.23
2018-09-23T12:48:53.974Z,97471.07
2018-09-23T12:51:22.282Z,97464.67
2018-09-23T12:53:50.582Z,97450.36
2018-09-23T12:56:18.784Z,97450.64
2018-09-23T12:58:46.994Z,97437.36
2018-09-23T13:01:15.207Z,97444.14
2018-09-23T13:03:43.442Z,97439.16
2018-09-23T13:06:11.699Z,97429.04
2018-09-23T13:08:39.976Z,97422.68
2018-09-23T13:11:08.261Z,97406.53
2018-09-23T13:13:36.473Z,97388.41
2018-09-23T13:16:04.733Z,97377.17
2018-09-23T13:18:32.958Z,97362.52
2018-09-23T13:21:01.127Z,97360.18
2018-09-23T13:23:29.316Z,97357.84
2018-09-23T13:25:57.501Z,97357.08
2018-09-23T13:28:25.715Z,97356.83
2018-09-23T13:30:53.889Z,97341.18
2018-09-23T13:33:22.069Z,97339.99
2018-09-23T13:35:50.313Z,97343.14
2018-09-23T13:38:18.494Z,97341.30
2018-09-23T13:40:46.736Z,97334.16
2018-09-23T13:43:14.942Z,97331.34
2018-09-23T13:45:43.205Z,97317.50
2018-09-23T13:48:11.399Z,97297.41
2018-09-23T13:50:39.587Z,97285.34
2018-09-23T13:53:08.024Z,97279.27
2018-09-23T13:55:36.200Z,97274.40
2018-09-23T13:58:04.602Z,97260.77
2018-09-23T14:00:32.811Z,97260.86
2018-09-23T14:03:00.986Z,97245.92
2018-09-23T14:05:29.194Z,97242.13
2018-09-23T14:07:57.393Z,97241.84
2018-09-23T14:10:25.585Z,97221.12
2018-09-23T14:12:53.983Z,97216.60
2018-09-23T14:15:22.149Z,97214.11
2018-09-23T14:17:50.567Z,97199.00
2018-09-23T14:20:18.777Z,97189.94
2018-09-23T14:22:47.061Z,97191.19
2018-09-23T14:25:15.320Z,97187.56
2018-09-23T14:27:43.534Z,97171.73
2018-09-23T14:30:11.796Z,97168.24
2018-09-23T14:32:39.984Z,97162.13
2018-09-23T14:35:08.234Z,97152.64
2018-09-23T14:37:36.482Z,97156.84
2018-09-23T14:40:04.667Z,97148.23
2018-09-23T14:42:33.004Z,97150.11
2018-09-23T14:45:01.171Z,97143.66
2018-09-23T14:47:29.351Z,97137.59
2018-09-23T14:49:57.674Z,97127.29
2018-09-23T14:52:25.961Z,97121.87
2018-09-23T14:54:54.337Z,97104.87
2018-09-23T14:57:22.497Z,97079.73
2018-09-23T14:59:54.189Z,97078.75
2018-09-23T15:02:18.863Z,97062.12
2018-09-23T15:04:47.053Z,97064.41
2018-09-23T15:07:15.454Z,97065.98
2018-09-23T15:09:43.690Z,97061.47
2018-09-23T15:12:11.984Z,97048.33
2018-09-23T15:14:40.164Z,97042.94
2018-09-23T15:17:08.394Z,97043.16
2018-09-23T15:19:36.688Z,97040.33
2018-09-23T15:22:05.422Z,97040.75
2018-09-23T15:24:33.597Z,97040.85
2018-09-23T15:27:01.845Z,97030.00
2018-09-23T15:29:30.134Z,97016.09
2018-09-23T15:31:58.322Z,97009.27
2018-09-23T15:34:26.527Z,96998.03
2018-09-23T15:36:54.700Z,96996.43
2018-09-23T15:39:22.878Z,96993.16
2018-09-23T15:41:51.070Z,96978.27
2018-09-23T15:44:19.333Z,96972.75
2018-09-23T15:46:48.336Z,96974.73
2018-09-23T15:49:16.562Z,96972.16
2018-09-23T15:51:44.787Z,96963.30
2018-09-23T15:54:12.964Z,96941.50
2018-09-23T15:56:41.238Z,96938.20
2018-09-23T15:59:09.425Z,96936.31
2018-09-23T16:01:37.722Z,96919.06
2018-09-23T16:04:06.066Z,96914.36
2018-09-23T16:06:34.239Z,96904.45
2018-09-23T16:09:02.424Z,96904.16
2018-09-23T16:11:33.478Z,96891.23
2018-09-23T16:14:01.645Z,96893.55
2018-09-23T16:16:29.909Z,96888.77
2018-09-23T16:18:58.158Z,96882.45
2018-09-23T16:21:26.333Z,96876.16
2018-09-23T16:23:54.572Z,96875.65
2018-09-23T16:26:22.807Z,96876.25
2018-09-23T16:28:50.997Z,96877.77
2018-09-23T16:31:19.270Z,96876.17
2018-09-23T16:33:47.440Z,96869.13
2018-09-23T16:36:15.950Z,96855.85
2018-09-23T16:38:44.222Z,96849.52
2018-09-23T16:41:12.414Z,96837.20
2018-09-23T16:43:40.624Z,96827.03
2018-09-23T16:46:08.942Z,96819.49
2018-09-23T16:48:37.102Z,96808.30
2018-09-23T16:51:05.394Z,96802.37
2018-09-23T16:53:33.590Z,96803.83
2018-09-23T16:56:01.802Z,96802.20
2018-09-23T16:58:30.000Z,96794.36
2018-09-23T17:00:58.238Z,96807.47
2018-09-23T17:03:26.421Z,96803.34
2018-09-23T17:05:54.600Z,96796.78
2018-09-23T17:08:22.886Z,96796.66
2018-09-23T17:10:51.078Z,96801.75
2018-09-23T17:13:19.566Z,96803.55
2018-09-23T17:15:47.768Z,96797.67
2018-09-23T17:18:15.964Z,96789.40
2018-09-23T17:20:44.248Z,96797.78
2018-09-23T17:23:12.441Z,96794.05
2018-09-23T17:25:40.661Z,96789.20
2018-09-23T17:28:08.921Z,96793.19
2018-09-23T17:30:37.221Z,96786.06
2018-09-23T17:33:05.425Z,96796.41
2018-09-23T17:35:33.621Z,96790.51
2018-09-23T17:38:01.878Z,96792.80
2018-09-23T17:40:30.058Z,96776.59
2018-09-23T17:42:58.237Z,96777.59
2018-09-23T17:45:26.502Z,96778.02
2018-09-23T17:47:54.770Z,96796.70
2018-09-23T17:50:22.949Z,96788.53
2018-09-23T17:52:51.345Z,96791.31
2018-09-23T17:55:19.759Z,96805.83
2018-09-23T17:57:47.968Z,96790.02
2018-09-23T18:00:16.152Z,96798.27
2018-09-23T18:02:44.332Z,96821.12
2018-09-23T18:05:12.818Z,96931.26
2018-09-23T18:07:41.090Z,96983.52
2018-09-23T18:10:09.278Z,97006.56
2018-09-23T18:12:37.456Z,97122.02
2018-09-23T18:15:05.941Z,97096.69
2018-09-23T18:17:34.164Z,97091.24
2018-09-23T18:20:02.462Z,97097.00
2018-09-23T18:22:30.761Z,97134.28
2018-09-23T18:24:59.017Z,97127.41
2018-09-23T18:27:28.538Z,97093.56
2018-09-23T18:29:56.745Z,97123.16
2018-09-23T18:32:24.909Z,97103.28
2018-09-23T18:34:53.097Z,97078.91
2018-09-23T18:37:21.416Z,97098.81
2018-09-23T18:39:49.591Z,97127.91
2018-09-23T18:42:17.817Z,97126.38
2018-09-23T18:44:46.061Z,97143.67
2018-09-23T18:47:14.411Z,97143.52
2018-09-23T18:49:42.786Z,97136.42
2018-09-23T18:52:11.089Z,97130.91
2018-09-23T18:54:44.565Z,97117.08
2018-09-23T18:57:12.777Z,97120.14
2018-09-23T18:59:40.977Z,97095.20
2018-09-23T19:02:09.231Z,97092.66
2018-09-23T19:04:37.531Z,97076.90
2018-09-23T19:07:05.803Z,97083.48
2018-09-23T19:09:34.031Z,97114.44
2018-09-23T19:12:02.455Z,97165.00
2018-09-23T19:14:30.726Z,97187.30
2018-09-23T19:16:58.972Z,97197.13
2018-09-23T19:19:32.516Z,97183.90
2018-09-23T19:22:00.704Z,125422.75
2018-09-23T19:25:13.628Z,125422.75
2018-09-23T19:54:46.017Z,125422.75
2018-09-23T19:58:07.136Z,125422.75
2018-09-23T20:05:33.399Z,125422.75
2018-09-23T20:30:10.835Z,125422.75
2018-09-23T20:32:41.497Z,125422.75
2018-09-23T20:37:38.582Z,125422.75
2018-09-23T20:45:02.165Z,97342.80
2018-09-23T20:50:22.396Z,125422.75
2018-09-23T21:08:37.797Z,125422.75
2018-09-23T21:36:46.082Z,125422.75
2018-09-23T21:39:14.438Z,125422.75
2018-09-23T23:05:18.802Z,125422.75
2018-09-23T23:07:47.344Z,125422.75
